createdAt,value
2019-02-26T00:01:19.151Z,4.70
2019-02-26T00:03:51.895Z,4.60
2019-02-26T00:06:25.359Z,5.47
2019-02-26T00:09:01.958Z,5.03
2019-02-26T00:11:36.179Z,4.47
2019-02-26T00:14:13.197Z,5.87
2019-02-26T00:16:44.591Z,6.20
2019-02-26T00:19:17.570Z,4.43
2019-02-26T00:21:51.896Z,5.97
2019-02-26T00:24:25.673Z,4.57
2019-02-26T00:32:04.814Z,2.70
2019-02-26T00:34:41.095Z,4.95
2019-02-26T00:37:14.012Z,4.87
2019-02-26T00:42:23.554Z,3.58
2019-02-26T00:44:57.695Z,5.33
2019-02-26T00:47:33.863Z,5.83
2019-02-26T00:50:07.314Z,6.23
2019-02-26T00:52:43.436Z,6.53
2019-02-26T00:55:15.882Z,6.33
2019-02-26T00:57:48.783Z,5.85
2019-02-26T01:00:26.820Z,6.00
2019-02-26T01:02:59.095Z,6.53
2019-02-26T01:05:36.329Z,7.83
2019-02-26T01:08:13.431Z,6.63
2019-02-26T01:10:46.360Z,5.57
2019-02-26T01:13:20.652Z,7.33
2019-02-26T01:15:55.034Z,7.30
2019-02-26T01:18:28.999Z,6.97
2019-02-26T01:21:04.655Z,5.70
2019-02-26T01:23:37.512Z,6.33
2019-02-26T01:26:12.606Z,5.63
2019-02-26T01:28:49.025Z,6.03
2019-02-26T01:31:27.387Z,5.83
2019-02-26T01:34:01.407Z,5.70
2019-02-26T01:36:34.254Z,6.07
2019-02-26T01:39:11.190Z,6.03
2019-02-26T01:41:46.038Z,5.80
2019-02-26T01:44:19.967Z,5.90
2019-02-26T01:46:53.425Z,4.33
2019-02-26T01:49:28.493Z,5.40
2019-02-26T01:52:01.814Z,6.30
2019-02-26T01:54:37.297Z,5.80
2019-02-26T01:57:10.321Z,4.80
2019-02-26T01:59:44.469Z,4.93
2019-02-26T02:05:28.165Z,5.43
2019-02-26T02:07:59.843Z,4.80
2019-02-26T02:10:33.937Z,3.95
2019-02-26T02:13:09.154Z,3.90
2019-02-26T02:15:44.856Z,4.37
2019-02-26T02:18:21.017Z,5.63
2019-02-26T02:20:55.035Z,5.53
2019-02-26T02:23:28.531Z,4.97
2019-02-26T02:26:04.405Z,4.83
2019-02-26T02:28:38.342Z,5.77
2019-02-26T02:31:13.904Z,6.53
2019-02-26T02:33:46.547Z,5.63
2019-02-26T02:36:21.075Z,4.95
2019-02-26T02:38:55.586Z,4.90
2019-02-26T02:41:29.511Z,5.10
2019-02-26T02:46:42.511Z,5.47
2019-02-26T02:49:27.127Z,4.60
2019-02-26T02:52:04.052Z,6.23
2019-02-26T02:54:35.844Z,6.13
2019-02-26T02:57:10.014Z,4.17
2019-02-26T02:59:43.422Z,5.57
2019-02-26T03:02:17.669Z,6.40
2019-02-26T03:04:50.763Z,4.77
2019-02-26T03:07:29.423Z,4.90
2019-02-26T03:10:06.792Z,5.97
2019-02-26T03:12:52.152Z,3.97
2019-02-26T03:15:21.898Z,4.77
2019-02-26T03:17:55.788Z,5.20
2019-02-26T03:20:31.831Z,5.50
2019-02-26T03:23:06.489Z,6.20
2019-02-26T03:25:38.461Z,5.40
2019-02-26T03:28:12.506Z,4.90
2019-02-26T03:30:48.698Z,4.77
2019-02-26T03:33:23.890Z,5.00
2019-02-26T03:35:58.161Z,5.97
2019-02-26T03:38:32.380Z,4.67
2019-02-26T03:41:04.889Z,5.83
2019-02-26T03:43:39.300Z,4.95
2019-02-26T03:46:14.179Z,4.67
2019-02-26T03:48:46.968Z,4.63
2019-02-26T03:51:21.156Z,3.70
2019-02-26T03:53:54.757Z,5.33
2019-02-26T03:56:27.700Z,4.40
2019-02-26T04:01:34.519Z,2.85
2019-02-26T04:04:07.780Z,3.90
2019-02-26T04:06:41.138Z,4.80
2019-02-26T04:09:17.261Z,4.93
2019-02-26T04:11:55.405Z,5.07
2019-02-26T04:14:30.526Z,5.63
2019-02-26T04:17:04.151Z,3.87
2019-02-26T04:19:43.613Z,4.50
2019-02-26T04:22:35.175Z,4.87
2019-02-26T04:25:22.288Z,4.10
2019-02-26T04:28:10.884Z,4.43
2019-02-26T04:31:41.536Z,3.73
2019-02-26T04:34:37.752Z,4.33
2019-02-26T04:38:31.148Z,4.57
2019-02-26T04:41:21.965Z,2.60
2019-02-26T04:45:08.712Z,4.03
2019-02-26T04:47:40.738Z,2.73
2019-02-26T04:50:13.565Z,3.93
2019-02-26T04:52:46.928Z,4.53
2019-02-26T04:55:19.868Z,5.03
2019-02-26T04:57:55.568Z,4.53
2019-02-26T05:00:30.418Z,5.30
2019-02-26T05:03:04.904Z,3.90
2019-02-26T05:05:37.268Z,3.73
2019-02-26T05:08:12.311Z,3.72
2019-02-26T05:10:48.989Z,4.43
2019-02-26T05:13:24.777Z,3.73
2019-02-26T05:15:56.279Z,4.33
2019-02-26T05:18:31.613Z,5.55
2019-02-26T05:21:08.333Z,5.97
2019-02-26T05:23:42.689Z,7.23
2019-02-26T05:26:20.815Z,6.33
2019-02-26T05:28:53.832Z,5.57
2019-02-26T05:34:00.020Z,1.12
2019-02-26T05:36:34.350Z,2.63
2019-02-26T05:39:14.034Z,4.13
2019-02-26T05:41:47.056Z,6.37
2019-02-26T05:44:21.112Z,5.07
2019-02-26T05:46:56.114Z,4.23
2019-02-26T05:49:28.516Z,5.37
2019-02-26T05:52:04.087Z,4.85
2019-02-26T05:54:37.094Z,5.67
2019-02-26T05:57:25.650Z,5.00
2019-02-26T05:59:44.304Z,5.53
2019-02-26T06:02:19.676Z,6.20
2019-02-26T06:04:52.643Z,5.77
2019-02-26T06:07:29.743Z,7.17
2019-02-26T06:10:00.981Z,6.13
2019-02-26T06:12:35.524Z,6.60
2019-02-26T06:15:08.437Z,6.07
2019-02-26T06:17:45.244Z,5.10
2019-02-26T06:20:20.011Z,5.43
2019-02-26T06:23:00.549Z,5.93
2019-02-26T06:25:50.776Z,6.67
2019-02-26T06:28:24.245Z,5.67
2019-02-26T06:30:56.967Z,6.27
2019-02-26T06:33:34.121Z,6.85
2019-02-26T06:36:06.359Z,5.97
2019-02-26T06:38:38.874Z,6.80
2019-02-26T06:41:11.885Z,5.53
2019-02-26T06:46:29.357Z,3.37
2019-02-26T06:49:17.798Z,5.17
2019-02-26T06:51:52.188Z,3.37
2019-02-26T06:54:29.169Z,3.40
2019-02-26T06:57:02.043Z,4.77
2019-02-26T06:59:36.820Z,7.72
2019-02-26T07:02:08.805Z,4.93
2019-02-26T07:04:43.880Z,5.73
2019-02-26T07:07:17.178Z,9.70
2019-02-26T07:09:51.501Z,11.93
2019-02-26T07:12:26.557Z,9.20
2019-02-26T07:14:59.667Z,8.30
2019-02-26T07:20:06.094Z,3.70
2019-02-26T07:25:15.255Z,4.10
2019-02-26T07:27:46.354Z,6.23
2019-02-26T07:30:20.741Z,5.70
2019-02-26T07:32:54.171Z,6.10
2019-02-26T07:35:28.751Z,6.97
2019-02-26T07:38:01.723Z,7.13
2019-02-26T07:40:36.012Z,6.33
2019-02-26T07:43:12.735Z,7.17
2019-02-26T07:45:46.365Z,8.33
2019-02-26T07:48:21.368Z,9.27
2019-02-26T07:50:54.751Z,9.30
2019-02-26T07:53:27.631Z,9.50
2019-02-26T07:56:04.537Z,10.50
2019-02-26T07:58:38.953Z,10.17
2019-02-26T08:01:20.778Z,7.53
2019-02-26T08:04:17.954Z,9.53
2019-02-26T08:06:51.822Z,9.03
2019-02-26T08:09:25.956Z,11.37
2019-02-26T08:11:59.418Z,5.83
2019-02-26T08:14:33.288Z,10.73
2019-02-26T08:17:06.349Z,11.77
2019-02-26T08:22:13.576Z,12.95
2019-02-26T08:24:50.330Z,10.97
2019-02-26T08:27:23.507Z,9.47
2019-02-26T08:29:59.121Z,11.93
2019-02-26T08:32:32.458Z,10.77
2019-02-26T08:37:36.809Z,9.75
2019-02-26T08:40:14.962Z,11.50
2019-02-26T08:42:48.091Z,11.20
2019-02-26T08:45:23.038Z,10.35
2019-02-26T08:47:55.332Z,11.77
2019-02-26T08:50:30.697Z,11.22
2019-02-26T08:53:03.105Z,10.30
2019-02-26T08:58:10.671Z,9.00
2019-02-26T09:00:44.132Z,9.60
2019-02-26T09:03:20.440Z,11.63
2019-02-26T09:05:58.426Z,10.72
2019-02-26T09:08:32.942Z,10.50
2019-02-26T09:11:10.159Z,9.60
2019-02-26T09:13:44.973Z,9.98
2019-02-26T09:16:21.794Z,11.05
2019-02-26T09:18:53.530Z,9.85
2019-02-26T09:24:00.005Z,9.15
2019-02-26T09:26:33.500Z,10.72
2019-02-26T09:29:10.329Z,9.13
2019-02-26T09:31:45.547Z,10.72
2019-02-26T09:34:18.229Z,9.48
2019-02-26T09:36:53.083Z,9.93
2019-02-26T09:39:29.278Z,8.83
2019-02-26T09:42:06.547Z,10.58
2019-02-26T09:44:40.155Z,9.45
2019-02-26T09:47:13.094Z,8.50
2019-02-26T09:49:49.433Z,10.35
2019-02-26T09:52:27.568Z,9.98
2019-02-26T09:55:02.817Z,9.28
2019-02-26T09:57:36.556Z,8.95
2019-02-26T10:00:16.850Z,9.73
2019-02-26T10:02:52.113Z,9.48
2019-02-26T10:05:24.813Z,9.38
2019-02-26T10:08:02.099Z,10.88
2019-02-26T10:10:36.927Z,9.70
2019-02-26T10:13:11.050Z,9.90
2019-02-26T10:15:45.185Z,8.33
2019-02-26T10:18:18.433Z,9.38
2019-02-26T10:20:52.259Z,7.20
2019-02-26T10:23:28.643Z,8.88
2019-02-26T10:26:03.458Z,8.78
2019-02-26T10:28:42.665Z,7.37
2019-02-26T10:31:15.402Z,7.22
2019-02-26T10:33:48.942Z,8.55
2019-02-26T10:36:23.176Z,10.38
2019-02-26T10:39:00.741Z,8.93
2019-02-26T10:41:34.874Z,8.73
2019-02-26T10:44:09.518Z,8.95
2019-02-26T10:46:44.529Z,9.98
2019-02-26T10:49:18.328Z,8.80
2019-02-26T10:51:51.340Z,9.50
2019-02-26T10:54:23.775Z,8.50
2019-02-26T10:56:57.969Z,7.90
2019-02-26T10:59:31.831Z,8.35
2019-02-26T11:02:04.262Z,8.73
2019-02-26T11:04:41.142Z,7.53
2019-02-26T11:07:14.278Z,7.12
2019-02-26T11:09:50.135Z,6.87
2019-02-26T11:12:25.194Z,6.97
2019-02-26T11:15:01.696Z,7.62
2019-02-26T11:17:34.154Z,9.40
2019-02-26T11:22:42.228Z,7.28
2019-02-26T11:25:18.519Z,8.20
2019-02-26T11:27:50.983Z,6.58
2019-02-26T11:30:25.889Z,7.70
2019-02-26T11:33:02.332Z,7.12
2019-02-26T11:35:32.836Z,7.13
2019-02-26T11:38:05.629Z,7.90
2019-02-26T11:40:38.739Z,7.05
2019-02-26T11:43:14.427Z,7.53
2019-02-26T11:45:46.988Z,7.03
2019-02-26T11:48:21.284Z,7.33
2019-02-26T11:50:55.774Z,7.37
2019-02-26T11:53:30.359Z,6.57
2019-02-26T11:56:04.103Z,7.07
2019-02-26T11:58:37.278Z,7.07
2019-02-26T12:01:14.660Z,5.70
2019-02-26T12:03:48.203Z,7.20
2019-02-26T12:06:20.964Z,6.13
2019-02-26T12:08:53.922Z,6.58
2019-02-26T12:11:27.001Z,6.97
2019-02-26T12:14:00.823Z,6.65
2019-02-26T12:16:33.923Z,6.00
2019-02-26T12:19:08.309Z,6.08
2019-02-26T12:21:41.330Z,7.10
2019-02-26T12:24:14.682Z,6.53
2019-02-26T12:26:49.429Z,6.73
2019-02-26T12:29:23.588Z,6.47
2019-02-26T12:31:58.220Z,6.40
2019-02-26T12:34:32.374Z,5.40
2019-02-26T12:37:08.707Z,4.80
2019-02-26T12:39:39.458Z,4.50
2019-02-26T12:44:45.777Z,4.45
2019-02-26T12:47:21.770Z,4.83
2019-02-26T12:49:55.649Z,3.90
2019-02-26T12:52:30.413Z,4.00
2019-02-26T12:55:07.548Z,3.40
2019-02-26T12:57:38.097Z,4.07
2019-02-26T13:00:20.054Z,3.83
2019-02-26T13:02:52.482Z,4.53
2019-02-26T13:05:25.717Z,4.00
2019-02-26T13:07:59.059Z,3.45
2019-02-26T13:10:32.614Z,3.73
2019-02-26T13:13:07.821Z,3.47
2019-02-26T13:15:40.457Z,4.30
2019-02-26T13:18:13.174Z,3.75
2019-02-26T13:23:20.852Z,3.10
2019-02-26T13:25:52.618Z,2.87
2019-02-26T13:31:02.344Z,3.77
2019-02-26T13:33:38.509Z,3.80
2019-02-26T13:36:11.665Z,3.40
2019-02-26T13:38:48.770Z,3.80
2019-02-26T13:41:29.395Z,4.33
2019-02-26T13:43:54.131Z,3.60
2019-02-26T13:46:27.858Z,4.20
2019-02-26T13:49:00.851Z,4.40
2019-02-26T13:51:34.406Z,4.60
2019-02-26T13:54:07.795Z,4.40
2019-02-26T13:56:41.442Z,4.23
2019-02-26T13:59:14.192Z,4.53
2019-02-26T14:04:19.195Z,3.87
2019-02-26T14:09:23.359Z,3.05
2019-02-26T14:11:56.049Z,3.60
2019-02-26T14:14:29.352Z,3.80
2019-02-26T14:17:02.204Z,3.92
2019-02-26T14:19:34.847Z,3.70
2019-02-26T14:22:07.235Z,3.80
2019-02-26T14:24:40.081Z,2.92
2019-02-26T14:29:44.024Z,4.20
2019-02-26T14:32:17.142Z,4.60
2019-02-26T14:34:49.885Z,4.10
2019-02-26T14:37:22.318Z,4.28
2019-02-26T14:39:55.070Z,3.67
2019-02-26T14:42:27.505Z,3.42
2019-02-26T14:45:00.220Z,3.92
2019-02-26T14:47:33.360Z,3.98
2019-02-26T14:50:07.357Z,4.17
2019-02-26T14:52:40.449Z,4.10
2019-02-26T14:55:13.842Z,4.62
2019-02-26T14:57:47.236Z,3.67
2019-02-26T15:00:24.107Z,4.27
2019-02-26T15:02:57.272Z,4.47
2019-02-26T15:05:30.125Z,3.77
2019-02-26T15:10:34.103Z,3.65
2019-02-26T15:13:07.533Z,4.00
2019-02-26T15:15:40.691Z,4.00
2019-02-26T15:18:13.332Z,4.43
2019-02-26T15:20:47.176Z,3.90
2019-02-26T15:23:20.723Z,3.87
2019-02-26T15:25:53.151Z,4.83
2019-02-26T15:28:26.326Z,4.67
2019-02-26T15:30:59.042Z,4.50
2019-02-26T15:33:31.605Z,4.80
2019-02-26T15:38:35.626Z,4.12
2019-02-26T15:41:08.806Z,4.58
2019-02-26T15:43:41.901Z,4.40
2019-02-26T15:46:14.005Z,4.33
2019-02-26T15:48:47.676Z,4.22
2019-02-26T15:51:20.776Z,4.10
2019-02-26T15:53:55.698Z,4.37
2019-02-26T15:56:30.564Z,5.53
2019-02-26T15:59:04.831Z,4.37
2019-02-26T16:01:37.875Z,4.40
2019-02-26T16:04:10.781Z,4.47
2019-02-26T16:09:15.504Z,4.20
2019-02-26T16:11:48.646Z,4.03
2019-02-26T16:14:21.090Z,4.85
2019-02-26T16:16:54.280Z,3.95
2019-02-26T16:19:27.537Z,4.40
2019-02-26T16:22:01.223Z,5.00
2019-02-26T16:24:34.368Z,4.80
2019-02-26T16:27:07.254Z,4.67
2019-02-26T16:32:11.871Z,4.42
2019-02-26T16:34:44.929Z,5.10
2019-02-26T16:37:18.291Z,5.40
2019-02-26T16:39:52.003Z,5.42
2019-02-26T16:42:25.867Z,6.22
2019-02-26T16:45:01.222Z,6.50
2019-02-26T16:47:33.927Z,6.47
2019-02-26T16:50:13.082Z,5.90
2019-02-26T16:52:44.208Z,5.40
2019-02-26T16:55:17.602Z,4.62
2019-02-26T16:57:50.553Z,4.30
2019-02-26T17:00:24.160Z,4.85
2019-02-26T17:02:59.828Z,5.28
2019-02-26T17:05:31.750Z,5.58
2019-02-26T17:08:05.093Z,6.15
2019-02-26T17:10:38.444Z,6.12
2019-02-26T17:15:42.889Z,5.58
2019-02-26T17:18:16.224Z,6.62
2019-02-26T17:20:49.534Z,7.35
2019-02-26T17:23:21.945Z,6.37
2019-02-26T17:25:55.078Z,7.80
2019-02-26T17:30:59.508Z,6.58
2019-02-26T17:33:33.479Z,7.08
2019-02-26T17:36:07.451Z,7.47
2019-02-26T17:38:41.190Z,6.58
2019-02-26T17:41:15.220Z,7.22
2019-02-26T17:43:48.341Z,7.58
2019-02-26T17:46:21.151Z,7.65
2019-02-26T17:48:54.398Z,6.55
2019-02-26T17:53:59.336Z,4.60
2019-02-26T17:59:02.899Z,5.08
2019-02-26T18:01:35.366Z,5.30
2019-02-26T18:04:08.758Z,4.55
2019-02-26T18:06:41.576Z,5.60
2019-02-26T18:09:14.454Z,5.70
2019-02-26T18:11:48.159Z,5.42
2019-02-26T18:14:22.416Z,5.90
2019-02-26T18:16:56.066Z,5.62
2019-02-26T18:19:29.906Z,5.35
2019-02-26T18:22:03.183Z,6.35
2019-02-26T18:24:36.633Z,5.30
2019-02-26T18:27:09.925Z,5.28
2019-02-26T18:29:43.704Z,5.73
2019-02-26T18:32:17.015Z,5.47
2019-02-26T18:34:50.022Z,6.37
2019-02-26T18:39:55.274Z,5.08
2019-02-26T18:42:28.735Z,7.03
2019-02-26T18:47:33.144Z,5.62
2019-02-26T18:52:41.206Z,5.42
2019-02-26T18:55:14.109Z,6.97
2019-02-26T18:57:48.499Z,6.10
2019-02-26T19:00:25.861Z,7.08
2019-02-26T19:02:58.732Z,6.92
2019-02-26T19:05:31.968Z,7.80
2019-02-26T19:10:37.795Z,4.15
2019-02-26T19:13:10.526Z,6.30
2019-02-26T19:15:47.652Z,5.08
2019-02-26T19:18:19.265Z,6.28
2019-02-26T19:20:52.512Z,6.17
2019-02-26T19:23:26.407Z,6.37
2019-02-26T19:25:59.448Z,6.12
2019-02-26T19:28:32.436Z,6.10
2019-02-26T19:33:37.770Z,5.05
2019-02-26T19:36:13.026Z,5.75
2019-02-26T19:38:46.831Z,6.28
2019-02-26T19:41:19.950Z,5.95
2019-02-26T19:43:53.642Z,5.40
2019-02-26T19:46:27.153Z,6.17
2019-02-26T19:51:30.846Z,5.15
2019-02-26T19:54:04.745Z,5.70
2019-02-26T19:56:38.921Z,5.67
2019-02-26T19:59:13.651Z,5.10
2019-02-26T20:01:47.059Z,5.55
2019-02-26T20:04:20.471Z,5.12
2019-02-26T20:06:54.039Z,5.03
2019-02-26T20:09:27.441Z,5.70
2019-02-26T20:12:00.916Z,5.80
2019-02-26T20:14:33.959Z,5.83
2019-02-26T20:17:14.420Z,7.17
2019-02-26T20:19:42.129Z,6.35
2019-02-26T20:22:14.552Z,6.17
2019-02-26T20:24:47.303Z,6.53
2019-02-26T20:27:21.794Z,5.67
2019-02-26T20:29:55.391Z,5.95
2019-02-26T20:32:31.096Z,5.92
2019-02-26T20:35:04.402Z,5.50
2019-02-26T20:37:38.430Z,6.53
2019-02-26T20:40:16.382Z,5.72
2019-02-26T20:42:49.498Z,6.05
2019-02-26T20:45:22.626Z,6.50
2019-02-26T20:47:56.376Z,6.42
2019-02-26T20:50:29.955Z,5.10
2019-02-26T20:53:05.690Z,5.85
2019-02-26T20:55:38.682Z,5.58
2019-02-26T20:58:12.543Z,6.33
2019-02-26T21:00:48.225Z,5.35
2019-02-26T21:03:21.499Z,5.75
2019-02-26T21:08:30.702Z,5.08
2019-02-26T21:11:01.867Z,5.85
2019-02-26T21:13:35.498Z,6.15
2019-02-26T21:16:09.064Z,6.65
2019-02-26T21:18:41.918Z,5.92
2019-02-26T21:21:14.781Z,6.90
2019-02-26T21:23:47.759Z,5.80
2019-02-26T21:26:20.608Z,6.50
2019-02-26T21:28:54.610Z,5.87
2019-02-26T21:31:27.658Z,6.80
2019-02-26T21:34:03.733Z,6.87
2019-02-26T21:36:36.838Z,7.33
2019-02-26T21:39:11.087Z,8.48
2019-02-26T21:41:45.003Z,8.63
2019-02-26T21:44:17.682Z,7.37
2019-02-26T21:46:50.772Z,9.55
2019-02-26T21:49:23.309Z,11.95
2019-02-26T21:51:56.406Z,11.45
2019-02-26T21:54:29.077Z,8.93
2019-02-26T21:57:02.067Z,8.05
2019-02-26T21:59:35.398Z,7.95
2019-02-26T22:04:39.076Z,5.60
2019-02-26T22:07:13.209Z,6.03
2019-02-26T22:09:46.985Z,7.30
2019-02-26T22:12:24.211Z,7.33
2019-02-26T22:14:56.996Z,6.15
2019-02-26T22:17:29.817Z,6.28
2019-02-26T22:20:03.276Z,6.42
2019-02-26T22:22:36.178Z,6.20
2019-02-26T22:25:15.806Z,7.00
2019-02-26T22:27:45.493Z,7.00
2019-02-26T22:30:21.421Z,6.53
2019-02-26T22:32:54.540Z,6.90
2019-02-26T22:35:27.862Z,6.15
2019-02-26T22:38:03.033Z,6.03
2019-02-26T22:40:37.920Z,6.60
2019-02-26T22:43:14.321Z,8.13
2019-02-26T22:45:48.277Z,7.70
2019-02-26T22:48:21.256Z,7.25
2019-02-26T22:50:54.609Z,8.23
2019-02-26T22:56:02.289Z,5.50
2019-02-26T22:58:36.317Z,7.97
2019-02-26T23:01:30.255Z,8.00
2019-02-26T23:03:58.001Z,7.20
2019-02-26T23:06:31.734Z,5.87
2019-02-26T23:09:05.840Z,6.78
2019-02-26T23:11:39.232Z,7.28
2019-02-26T23:14:12.348Z,6.65
2019-02-26T23:16:45.468Z,6.90
2019-02-26T23:19:18.622Z,6.43
2019-02-26T23:21:51.941Z,6.50
2019-02-26T23:26:59.052Z,5.03
2019-02-26T23:29:32.979Z,6.60
2019-02-26T23:32:06.742Z,7.83
2019-02-26T23:34:42.200Z,7.37
2019-02-26T23:37:15.824Z,8.43
2019-02-26T23:42:20.346Z,6.47
2019-02-26T23:44:52.892Z,6.93
2019-02-26T23:47:26.024Z,6.20
2019-02-26T23:49:58.584Z,6.37
2019-02-26T23:52:32.667Z,7.10
2019-02-26T23:55:06.875Z,6.03
2019-02-26T23:57:40.267Z,6.55
